Time;durP1;ratioP1;P1;durP2;ratioP2;P2;SDS_P1;SDS_P2;PMS_P1;PMS_P2;Temp;Humidity;BMP_temperature;BMP_pressure;BME280_temperature;BME280_humidity;BME280_pressure;Samples;Min_cycle;Max_cycle;Signal;HPM_P1;HPM_P2
2021/12/20 00:01:14;;;;;;;15.10;10.65;;;9.40;99.90;;;;;;5025493;28;20485;-76
2021/12/20 00:04:20;;;;;;;11.15;7.15;;;9.40;99.90;;;;;;5028610;28;20036;-76
2021/12/20 00:07:24;;;;;;;12.70;8.68;;;9.50;99.90;;;;;;5029628;28;20077;-76
2021/12/20 00:10:28;;;;;;;10.65;6.80;;;9.50;99.90;;;;;;5027474;28;20035;-76
2021/12/20 00:13:32;;;;;;;10.18;6.25;;;9.50;99.90;;;;;;5028589;28;20044;-76
2021/12/20 00:16:36;;;;;;;9.60;6.68;;;9.50;99.90;;;;;;5033864;28;20060;-76
2021/12/20 00:19:40;;;;;;;10.57;6.95;;;9.50;99.90;;;;;;5032973;28;20048;-73
2021/12/20 00:22:44;;;;;;;11.30;6.00;;;9.50;99.90;;;;;;5029529;28;20040;-76
2021/12/20 00:25:48;;;;;;;13.93;7.60;;;9.50;99.90;;;;;;5030127;28;20044;-76
2021/12/20 00:29:11;;;;;;;11.00;6.47;;;9.50;99.90;;;;;;5032689;28;20049;-75
2021/12/20 00:32:17;;;;;;;11.82;8.80;;;9.60;99.90;;;;;;5030723;28;20053;-76
2021/12/20 00:35:25;;;;;;;15.82;10.52;;;9.60;99.90;;;;;;5028421;28;20057;-76
2021/12/20 00:41:51;;;;;;;12.65;6.47;;;9.60;99.90;;;;;;5031168;28;20044;-76
2021/12/20 00:44:55;;;;;;;15.13;7.90;;;9.70;99.90;;;;;;5030129;28;20052;-76
2021/12/20 00:48:00;;;;;;;12.52;6.82;;;9.70;99.90;;;;;;5033109;28;20392;-76
2021/12/20 00:51:04;;;;;;;7.82;4.68;;;9.70;99.90;;;;;;5032757;28;20491;-75
2021/12/20 00:54:08;;;;;;;10.30;4.97;;;9.70;99.90;;;;;;5026297;28;20038;-75
2021/12/20 00:57:12;;;;;;;9.15;5.18;;;9.70;99.90;;;;;;5032496;28;20400;-75
2021/12/20 01:00:23;;;;;;;9.55;5.10;;;9.80;99.90;;;;;;5025722;28;20037;-75
2021/12/20 01:03:29;;;;;;;8.07;4.25;;;9.80;99.90;;;;;;5030572;28;20041;-75
2021/12/20 01:06:33;;;;;;;8.02;4.90;;;9.80;99.90;;;;;;5031179;28;20374;-76
2021/12/20 01:09:39;;;;;;;8.02;4.70;;;9.90;99.90;;;;;;5028075;28;20037;-76
2021/12/20 01:12:49;;;;;;;7.80;4.22;;;9.80;99.90;;;;;;5030835;28;20486;-76
2021/12/20 01:15:54;;;;;;;6.18;4.28;;;9.90;99.90;;;;;;5028416;28;20052;-76
2021/12/20 01:18:58;;;;;;;8.25;4.88;;;9.80;99.90;;;;;;5031138;28;20531;-75
2021/12/20 01:22:05;;;;;;;7.78;4.80;;;9.80;99.90;;;;;;5031548;28;20048;-76
2021/12/20 01:25:09;;;;;;;16.05;4.70;;;9.80;99.90;;;;;;5026583;28;20033;-76
2021/12/20 01:28:13;;;;;;;6.30;4.28;;;9.80;99.90;;;;;;5031887;28;20040;-76
2021/12/20 01:31:17;;;;;;;7.25;4.68;;;9.80;99.90;;;;;;5031945;28;20052;-74
2021/12/20 01:34:21;;;;;;;7.93;4.03;;;9.80;99.90;;;;;;5029623;28;20049;-76
2021/12/20 01:37:25;;;;;;;8.32;4.63;;;9.80;99.90;;;;;;5028524;28;20049;-76
2021/12/20 01:40:29;;;;;;;8.02;4.50;;;9.80;99.90;;;;;;5026408;28;20037;-75
2021/12/20 01:43:33;;;;;;;9.18;4.45;;;9.80;99.90;;;;;;5026707;28;20037;-76
2021/12/20 01:46:37;;;;;;;9.07;4.35;;;9.80;99.90;;;;;;5027160;28;20045;-76
2021/12/20 01:49:57;;;;;;;8.32;4.30;;;9.80;99.90;;;;;;5027852;28;20048;-76
2021/12/20 01:53:01;;;;;;;9.88;4.80;;;9.90;99.90;;;;;;5029998;28;20054;-75
2021/12/20 01:56:06;;;;;;;8.25;4.20;;;9.90;99.90;;;;;;5030673;28;20041;-76
2021/12/20 01:59:11;;;;;;;9.43;4.15;;;9.90;99.90;;;;;;5022413;28;20927;-76
2021/12/20 02:02:23;;;;;;;6.85;4.22;;;9.90;99.90;;;;;;5034276;28;20388;-75
2021/12/20 02:08:41;;;;;;;9.15;5.00;;;9.90;99.90;;;;;;5029100;28;20058;-76
2021/12/20 02:11:48;;;;;;;11.05;4.28;;;9.80;99.90;;;;;;5031072;28;20037;-76
2021/12/20 02:14:52;;;;;;;8.45;4.25;;;9.90;99.90;;;;;;5028206;28;20048;-75
2021/12/20 02:17:57;;;;;;;7.90;3.85;;;9.80;99.90;;;;;;5030755;28;20038;-75
2021/12/20 02:21:01;;;;;;;4.90;3.13;;;9.80;99.90;;;;;;5030755;28;20049;-76
2021/12/20 02:24:05;;;;;;;7.80;3.92;;;9.90;99.90;;;;;;5030486;28;20052;-75
2021/12/20 02:27:09;;;;;;;9.13;3.72;;;9.90;99.90;;;;;;5030400;28;20392;-76
2021/12/20 02:30:37;;;;;;;5.85;3.72;;;9.90;99.90;;;;;;5023069;28;20029;-75
2021/12/20 02:37:21;;;;;;;6.95;3.72;;;9.90;99.90;;;;;;5028582;28;20377;-76
2021/12/20 02:40:24;;;;;;;6.30;3.55;;;9.90;99.90;;;;;;5023946;28;20048;-75
2021/12/20 02:43:29;;;;;;;7.88;3.50;;;10.00;99.90;;;;;;5028588;28;20052;-74
2021/12/20 02:49:41;;;;;;;8.90;3.70;;;10.00;99.90;;;;;;5029473;28;20046;-76
2021/12/20 02:52:45;;;;;;;8.10;3.72;;;10.00;99.90;;;;;;5027942;28;20084;-75
2021/12/20 02:55:50;;;;;;;10.25;4.35;;;10.00;99.90;;;;;;5028809;28;20044;-75
2021/12/20 02:58:54;;;;;;;5.68;3.45;;;10.00;99.90;;;;;;5029047;28;20056;-75
2021/12/20 03:02:06;;;;;;;6.68;3.67;;;9.90;99.90;;;;;;5030335;28;20056;-75
2021/12/20 03:05:12;;;;;;;8.32;3.75;;;10.00;99.90;;;;;;5029819;28;20045;-75
2021/12/20 03:08:20;;;;;;;6.68;3.78;;;10.00;99.90;;;;;;5029705;28;20056;-75
2021/12/20 03:11:27;;;;;;;6.18;3.63;;;10.00;99.90;;;;;;5023649;28;20037;-75
2021/12/20 03:14:40;;;;;;;7.47;3.53;;;9.90;99.90;;;;;;5030073;28;20048;-75
2021/12/20 03:17:45;;;;;;;11.45;4.32;;;9.90;99.90;;;;;;5027323;28;20056;-76
2021/12/20 03:20:49;;;;;;;11.38;3.95;;;9.80;99.90;;;;;;5029323;28;20432;-76
2021/12/20 03:23:53;;;;;;;9.38;4.18;;;9.80;99.90;;;;;;5028330;28;20604;-76
2021/12/20 03:26:57;;;;;;;4.70;3.05;;;9.80;99.90;;;;;;5026659;28;20037;-75
2021/12/20 03:30:02;;;;;;;10.32;3.88;;;9.80;99.90;;;;;;5027966;28;20041;-76
2021/12/20 03:33:07;;;;;;;5.72;2.80;;;9.90;99.90;;;;;;5029600;28;20498;-75
2021/12/20 03:36:11;;;;;;;9.65;3.15;;;9.80;99.90;;;;;;5028912;28;20040;-76
2021/12/20 03:39:15;;;;;;;5.65;3.15;;;9.80;99.90;;;;;;5021867;28;20058;-76
2021/12/20 03:42:19;;;;;;;9.25;3.60;;;9.80;99.90;;;;;;5029057;28;20029;-75
2021/12/20 03:45:23;;;;;;;7.43;3.03;;;9.90;99.90;;;;;;5029484;28;20041;-76
2021/12/20 03:48:27;;;;;;;8.52;3.42;;;9.80;99.90;;;;;;5027484;28;20524;-75
2021/12/20 03:51:32;;;;;;;7.47;3.42;;;9.90;99.90;;;;;;5029708;28;20586;-76
2021/12/20 03:54:36;;;;;;;5.63;3.10;;;9.90;99.90;;;;;;5029078;28;20037;-76
2021/12/20 03:57:40;;;;;;;7.82;3.00;;;9.90;99.90;;;;;;5029179;28;20042;-75
2021/12/20 04:00:45;;;;;;;4.78;2.80;;;9.90;99.90;;;;;;5026335;28;20040;-75
2021/12/20 04:03:50;;;;;;;6.65;3.25;;;10.00;99.90;;;;;;5029347;28;20040;-75
2021/12/20 04:06:54;;;;;;;11.15;3.65;;;10.00;99.90;;;;;;5028566;28;20044;-75
2021/12/20 04:09:58;;;;;;;7.38;2.97;;;10.00;99.90;;;;;;5027330;28;20507;-75
2021/12/20 04:13:02;;;;;;;9.27;2.70;;;10.00;99.90;;;;;;5027417;28;20049;-74
2021/12/20 04:16:06;;;;;;;5.70;3.47;;;10.10;99.90;;;;;;5028555;28;20132;-75
2021/12/20 04:19:10;;;;;;;4.07;3.10;;;10.10;99.90;;;;;;5023988;28;20044;-75
2021/12/20 04:22:15;;;;;;;8.60;3.20;;;10.10;99.90;;;;;;5029031;28;20279;-76
2021/12/20 04:25:20;;;;;;;7.82;3.50;;;10.10;99.90;;;;;;5028079;28;20041;-75
2021/12/20 04:28:26;;;;;;;10.55;3.92;;;10.10;99.90;;;;;;5022010;28;20056;-75
2021/12/20 04:31:31;;;;;;;8.02;3.45;;;10.10;99.90;;;;;;5026777;28;20036;-75
2021/12/20 04:34:35;;;;;;;8.15;3.40;;;10.10;99.90;;;;;;5025414;28;20072;-75
2021/12/20 04:37:43;;;;;;;6.60;3.20;;;10.10;99.90;;;;;;5028336;28;20044;-75
2021/12/20 04:40:47;;;;;;;6.97;3.30;;;10.10;99.90;;;;;;5026301;28;20396;-75
2021/12/20 04:43:51;;;;;;;4.60;3.38;;;10.10;99.90;;;;;;5028084;28;20531;-75
2021/12/20 04:46:55;;;;;;;10.13;3.75;;;10.10;99.90;;;;;;5027830;28;20416;-75
2021/12/20 04:49:59;;;;;;;7.55;3.95;;;10.20;99.90;;;;;;5028206;28;20531;-74
2021/12/20 04:53:04;;;;;;;6.65;3.70;;;10.20;99.90;;;;;;5028439;28;20405;-75
2021/12/20 04:56:08;;;;;;;21.77;5.57;;;10.20;99.90;;;;;;5022666;28;20479;-75
2021/12/20 04:59:12;;;;;;;9.43;3.58;;;10.20;99.90;;;;;;5029728;28;20037;-75
2021/12/20 05:02:16;;;;;;;8.38;3.58;;;10.10;99.90;;;;;;5032450;28;20499;-75
2021/12/20 05:05:21;;;;;;;7.07;4.28;;;10.10;99.90;;;;;;5028265;28;20048;-75
2021/12/20 05:08:33;;;;;;;7.85;4.20;;;10.10;99.90;;;;;;5026073;28;20122;-75
2021/12/20 05:11:46;;;;;;;9.98;4.40;;;10.10;99.90;;;;;;5028900;28;20029;-75
2021/12/20 05:14:50;;;;;;;;;;;10.10;99.90;;;;;;5032290;28;20420;-75
2021/12/20 05:17:55;;;;;;;10.48;4.00;;;10.00;99.90;;;;;;5031284;28;19909;-75
2021/12/20 05:20:59;;;;;;;9.30;3.75;;;10.00;99.90;;;;;;5032029;28;20463;-75
2021/12/20 05:24:04;;;;;;;12.75;3.40;;;10.00;99.90;;;;;;5031417;28;20060;-75
2021/12/20 05:27:08;;;;;;;7.57;3.42;;;10.10;99.90;;;;;;5023565;28;20507;-74
2021/12/20 05:30:15;;;;;;;9.75;3.90;;;10.10;99.90;;;;;;5031839;28;20045;-74
2021/12/20 05:33:20;;;;;;;9.77;4.05;;;10.00;99.90;;;;;;5025366;28;20048;-75
2021/12/20 05:36:25;;;;;;;7.68;3.88;;;10.00;99.90;;;;;;5029745;28;20048;-75
2021/12/20 05:39:29;;;;;;;10.07;4.22;;;10.10;99.90;;;;;;5026851;28;20044;-74
2021/12/20 05:42:33;;;;;;;7.85;4.00;;;10.10;99.90;;;;;;5027424;28;20060;-75
2021/12/20 05:45:37;;;;;;;10.48;4.90;;;10.10;99.90;;;;;;5026408;28;20047;-75
2021/12/20 05:48:41;;;;;;;8.15;3.90;;;10.10;99.90;;;;;;5030211;28;20060;-75
2021/12/20 05:51:45;;;;;;;9.77;4.40;;;10.10;99.90;;;;;;5028687;28;20503;-75
2021/12/20 05:54:49;;;;;;;9.35;3.80;;;10.10;99.90;;;;;;5030807;28;20052;-75
2021/12/20 05:57:54;;;;;;;8.75;4.63;;;10.00;99.90;;;;;;5028995;28;20583;-74
2021/12/20 06:00:58;;;;;;;9.43;4.40;;;10.00;99.90;;;;;;5030203;28;20044;-73
2021/12/20 06:04:02;;;;;;;11.13;4.38;;;9.90;99.90;;;;;;5030368;28;20044;-75
2021/12/20 06:07:09;;;;;;;8.02;4.15;;;9.80;99.90;;;;;;5029592;28;20044;-75
2021/12/20 06:10:15;;;;;;;8.25;4.25;;;9.80;99.90;;;;;;5022633;28;20045;-74
2021/12/20 06:13:19;;;;;;;13.85;4.60;;;9.80;99.90;;;;;;5029745;28;20033;-75
2021/12/20 06:16:23;;;;;;;7.72;4.93;;;9.80;99.90;;;;;;5024336;28;20049;-75
2021/12/20 06:19:27;;;;;;;10.70;4.90;;;9.80;99.90;;;;;;5029321;28;20044;-75
2021/12/20 06:22:31;;;;;;;15.32;4.88;;;9.90;99.90;;;;;;5031803;28;20382;-75
2021/12/20 06:25:35;;;;;;;9.25;4.80;;;9.90;99.90;;;;;;5026102;28;20045;-73
2021/12/20 06:28:39;;;;;;;9.60;4.82;;;9.90;99.90;;;;;;5027097;28;20041;-75
2021/12/20 06:31:45;;;;;;;6.72;4.32;;;10.00;99.90;;;;;;5027319;28;20048;-73
2021/12/20 06:34:49;;;;;;;10.30;5.22;;;10.00;99.90;;;;;;5030036;28;20054;-75
2021/12/20 06:38:00;;;;;;;9.93;5.28;;;10.00;99.90;;;;;;5030719;28;20044;-75
2021/12/20 06:41:04;;;;;;;11.95;7.43;;;9.90;99.90;;;;;;5030222;28;20044;-75
2021/12/20 06:44:09;;;;;;;13.50;7.55;;;9.90;99.90;;;;;;5028026;28;20057;-75
2021/12/20 06:47:14;;;;;;;12.65;5.85;;;9.90;99.90;;;;;;5030100;28;20363;-75
2021/12/20 06:50:18;;;;;;;14.80;5.80;;;9.80;99.90;;;;;;5023305;28;20388;-75
2021/12/20 06:53:22;;;;;;;10.88;4.97;;;9.80;99.90;;;;;;5029386;28;20037;-75
2021/12/20 06:56:27;;;;;;;10.73;6.47;;;9.80;99.90;;;;;;5024483;28;20048;-75
2021/12/20 06:59:31;;;;;;;10.52;6.68;;;9.70;99.90;;;;;;5023870;28;20041;-75
2021/12/20 07:02:35;;;;;;;15.80;7.38;;;9.70;99.90;;;;;;5026099;28;20048;-75
2021/12/20 07:05:39;;;;;;;13.40;5.82;;;9.80;99.90;;;;;;5025934;28;20052;-74
2021/12/20 07:08:44;;;;;;;10.32;6.10;;;9.70;99.90;;;;;;5027194;28;20369;-75
2021/12/20 07:11:49;;;;;;;13.05;5.43;;;9.80;99.90;;;;;;5026466;28;20045;-73
2021/12/20 07:14:52;;;;;;;9.95;5.63;;;9.80;99.90;;;;;;5027367;28;20037;-75
2021/12/20 07:17:57;;;;;;;12.80;6.20;;;9.80;99.90;;;;;;5029552;28;20044;-75
2021/12/20 07:21:02;;;;;;;11.73;6.03;;;9.80;99.90;;;;;;5028379;28;20047;-75
2021/12/20 07:24:06;;;;;;;14.75;6.45;;;9.80;99.90;;;;;;5028629;28;20037;-75
2021/12/20 07:27:11;;;;;;;14.50;6.00;;;9.80;99.90;;;;;;5021198;28;20362;-73
2021/12/20 07:30:16;;;;;;;12.43;6.32;;;9.80;99.90;;;;;;5026936;28;20037;-75
2021/12/20 07:33:20;;;;;;;15.73;6.18;;;9.80;99.90;;;;;;5026794;28;20491;-75
2021/12/20 07:36:25;;;;;;;10.48;6.25;;;9.70;99.90;;;;;;5028288;28;20498;-75
2021/12/20 07:39:29;;;;;;;12.23;6.30;;;9.70;99.90;;;;;;5022536;28;20040;-74
2021/12/20 07:42:32;;;;;;;13.30;6.60;;;9.80;99.90;;;;;;5027015;28;20040;-75
2021/12/20 07:45:36;;;;;;;14.10;6.05;;;9.80;99.90;;;;;;5025052;28;20400;-75
2021/12/20 07:48:40;;;;;;;10.25;6.28;;;9.80;99.90;;;;;;5022810;28;20048;-74
2021/12/20 07:51:44;;;;;;;12.55;6.07;;;9.80;99.90;;;;;;5025657;28;20392;-75
2021/12/20 07:54:48;;;;;;;13.45;6.05;;;9.80;99.90;;;;;;5026822;28;20040;-75
2021/12/20 07:57:52;;;;;;;15.90;6.53;;;9.90;99.90;;;;;;5025096;28;20040;-75
2021/12/20 08:00:58;;;;;;;10.25;7.13;;;9.90;99.90;;;;;;5021129;28;20044;-75
2021/12/20 08:04:04;;;;;;;14.18;6.97;;;9.90;99.90;;;;;;5029328;28;20381;-75
2021/12/20 08:07:08;;;;;;;20.33;7.93;;;9.90;99.90;;;;;;5017734;28;20503;-75
2021/12/20 08:10:12;;;;;;;13.98;7.00;;;9.90;99.90;;;;;;5028081;28;20048;-75
2021/12/20 08:13:16;;;;;;;13.32;7.53;;;10.00;99.90;;;;;;5026612;28;20044;-75
2021/12/20 08:16:20;;;;;;;15.60;7.45;;;10.00;99.90;;;;;;5027796;28;20041;-75
2021/12/20 08:19:24;;;;;;;14.02;7.43;;;10.00;99.90;;;;;;5024817;28;20049;-75
2021/12/20 08:22:28;;;;;;;13.48;6.68;;;10.00;99.90;;;;;;5025937;28;20041;-75
2021/12/20 08:25:35;;;;;;;13.10;7.18;;;10.00;99.90;;;;;;5027322;28;20037;-75
2021/12/20 08:28:40;;;;;;;13.65;7.30;;;10.00;99.90;;;;;;5024622;28;20534;-75
2021/12/20 08:31:44;;;;;;;10.82;6.45;;;10.10;99.90;;;;;;5027782;28;20417;-75
2021/12/20 08:34:48;;;;;;;14.32;6.05;;;10.10;99.90;;;;;;5029920;28;20052;-75
2021/12/20 08:37:57;;;;;;;14.57;6.18;;;10.10;99.90;;;;;;5031520;28;20044;-75
2021/12/20 08:41:02;;;;;;;15.70;6.53;;;10.10;99.90;;;;;;5030392;28;20052;-75
2021/12/20 08:44:06;;;;;;;10.63;5.85;;;10.10;99.90;;;;;;5032371;28;20037;-76
2021/12/20 08:47:10;;;;;;;15.68;6.70;;;10.10;99.90;;;;;;5032581;28;20036;-75
2021/12/20 08:50:17;;;;;;;14.27;6.05;;;10.10;99.90;;;;;;5029776;28;20040;-75
2021/12/20 08:53:22;;;;;;;11.95;6.63;;;10.20;99.90;;;;;;5029355;28;20036;-75
2021/12/20 08:56:26;;;;;;;13.50;5.80;;;10.20;99.90;;;;;;5031545;28;20048;-75
2021/12/20 08:59:31;;;;;;;16.38;6.95;;;10.20;99.90;;;;;;5022892;28;20052;-75
2021/12/20 09:02:35;;;;;;;11.52;5.85;;;10.20;99.90;;;;;;5025378;28;20040;-75
2021/12/20 09:05:39;;;;;;;20.00;6.30;;;10.30;99.90;;;;;;5030259;28;20064;-75
2021/12/20 09:08:43;;;;;;;11.68;5.63;;;10.30;99.90;;;;;;5026618;28;20057;-75
2021/12/20 09:11:48;;;;;;;13.85;5.93;;;10.40;99.90;;;;;;5028343;28;20045;-75
2021/12/20 09:14:52;;;;;;;15.10;5.32;;;10.40;99.90;;;;;;5030006;28;20040;-75
2021/12/20 09:17:56;;;;;;;12.55;5.80;;;10.40;99.90;;;;;;5020935;28;20045;-75
2021/12/20 09:21:01;;;;;;;11.90;5.57;;;10.40;99.90;;;;;;5030784;28;20040;-75
2021/12/20 09:24:07;;;;;;;15.90;5.95;;;10.40;99.90;;;;;;5029757;28;20044;-75
2021/12/20 09:27:12;;;;;;;10.10;5.68;;;10.40;99.90;;;;;;5020992;28;20125;-75
2021/12/20 09:30:18;;;;;;;16.00;6.22;;;10.40;99.90;;;;;;5025657;28;20036;-76
2021/12/20 09:33:22;;;;;;;14.93;6.90;;;10.40;99.90;;;;;;5025451;28;20229;-75
2021/12/20 09:36:29;;;;;;;13.88;5.68;;;10.40;99.90;;;;;;5031502;28;20068;-75
2021/12/20 09:39:38;;;;;;;16.30;6.25;;;10.40;99.90;;;;;;5029912;28;20385;-75
2021/12/20 09:42:51;;;;;;;12.02;5.75;;;10.40;99.90;;;;;;5029091;28;20323;-74
2021/12/20 09:45:58;;;;;;;13.27;6.30;;;10.50;99.90;;;;;;5030474;28;20587;-75
2021/12/20 09:49:04;;;;;;;15.10;6.05;;;10.60;99.90;;;;;;5027990;28;20078;-75
2021/12/20 09:52:08;;;;;;;9.88;5.70;;;10.60;99.90;;;;;;5030448;28;20044;-75
2021/12/20 09:55:15;;;;;;;16.02;6.85;;;10.60;99.90;;;;;;5024800;28;20088;-75
2021/12/20 09:58:21;;;;;;;15.73;6.50;;;10.60;99.90;;;;;;5025093;28;20047;-75
2021/12/20 10:01:28;;;;;;;12.95;6.57;;;10.60;99.90;;;;;;5029160;28;20045;-75
2021/12/20 10:04:34;;;;;;;11.63;6.00;;;10.70;99.90;;;;;;5029462;28;20044;-75
2021/12/20 10:07:41;;;;;;;10.30;6.85;;;10.70;99.90;;;;;;5027475;28;20056;-75
2021/12/20 10:10:48;;;;;;;11.48;5.50;;;10.70;99.90;;;;;;5029336;28;20040;-75
2021/12/20 10:14:10;;;;;;;18.55;6.50;;;10.70;99.90;;;;;;5028405;28;20384;-74
2021/12/20 10:17:14;;;;;;;14.25;5.40;;;10.80;99.90;;;;;;5029790;28;20044;-75
2021/12/20 10:20:27;;;;;;;14.23;6.05;;;10.80;99.90;;;;;;5024037;28;20128;-75
2021/12/20 10:23:33;;;;;;;14.57;6.82;;;10.90;99.90;;;;;;5025251;28;20045;-75
2021/12/20 10:26:45;;;;;;;12.48;5.45;;;11.00;99.90;;;;;;5023825;28;20060;-75
2021/12/20 10:29:49;;;;;;;13.50;5.97;;;11.10;99.90;;;;;;5025390;28;20040;-75
2021/12/20 10:32:53;;;;;;;10.93;5.40;;;11.20;99.90;;;;;;5027623;28;20048;-75
2021/12/20 10:36:13;;;;;;;12.88;5.05;;;11.30;99.90;;;;;;5027317;28;20068;-75
2021/12/20 10:39:31;;;;;;;10.00;5.88;;;11.40;99.90;;;;;;5020355;28;20048;-75
2021/12/20 10:42:41;;;;;;;15.50;5.72;;;11.40;99.90;;;;;;5026226;28;20044;-75
2021/12/20 10:45:45;;;;;;;14.95;5.40;;;11.40;99.90;;;;;;5027741;28;20048;-74
2021/12/20 10:49:05;;;;;;;13.00;5.57;;;11.50;99.90;;;;;;5026935;28;20495;-74
2021/12/20 10:52:10;;;;;;;12.15;5.25;;;11.60;99.90;;;;;;5026042;28;20040;-75
2021/12/20 10:55:34;;;;;;;10.75;5.65;;;11.80;99.90;;;;;;5028220;28;20037;-75
2021/12/20 10:58:39;;;;;;;15.30;5.07;;;12.00;99.90;;;;;;5022792;28;20040;-75
2021/12/20 11:05:01;;;;;;;15.95;7.57;;;12.10;99.90;;;;;;5028228;28;20041;-75
2021/12/20 11:12:00;;;;;;;7.22;4.47;;;11.90;99.90;;;;;;5026044;28;20187;-74
2021/12/20 11:15:11;;;;;;;14.40;4.53;;;11.90;99.90;;;;;;5028510;28;20037;-74
2021/12/20 11:18:16;;;;;;;12.15;5.10;;;11.60;99.90;;;;;;5020444;28;20123;-75
2021/12/20 11:21:21;;;;;;;10.88;5.15;;;11.50;99.90;;;;;;5026822;28;20056;-73
2021/12/20 11:24:36;;;;;;;10.35;5.05;;;11.50;99.90;;;;;;5024748;28;20060;-74
2021/12/20 11:27:43;;;;;;;14.90;6.38;;;11.40;99.90;;;;;;5025349;28;20056;-75
2021/12/20 11:30:47;;;;;;;11.23;5.28;;;11.30;99.90;;;;;;5025907;28;20056;-75
2021/12/20 11:33:51;;;;;;;13.20;5.30;;;11.30;99.90;;;;;;5021979;28;20041;-74
2021/12/20 11:36:57;;;;;;;12.45;6.15;;;11.30;99.90;;;;;;5027428;28;20036;-74
2021/12/20 11:40:05;;;;;;;9.90;5.82;;;11.30;99.90;;;;;;5025829;28;20396;-75
2021/12/20 11:43:09;;;;;;;13.32;5.40;;;11.30;99.90;;;;;;5025827;28;20040;-74
2021/12/20 11:46:14;;;;;;;11.07;5.50;;;11.40;99.90;;;;;;5023027;28;20044;-75
2021/12/20 11:49:06;;;;;;;15.23;6.32;;;11.40;99.90;;;;;;5063563;28;20402;-50
2021/12/20 11:52:18;;;;;;;10.77;6.15;;;11.50;99.90;;;;;;5063652;28;20384;-50
2021/12/20 11:55:29;;;;;;;12.20;5.45;;;11.60;99.90;;;;;;5058320;28;20043;-54
2021/12/20 11:58:35;;;;;;;12.07;5.20;;;11.60;99.90;;;;;;5043296;28;20515;-49
2021/12/20 12:01:39;;;;;;;13.10;6.47;;;11.60;99.90;;;;;;5039503;28;20029;-53
2021/12/20 12:05:07;;;;;;;13.23;5.55;;;11.70;99.90;;;;;;5045961;28;20048;-52
2021/12/20 12:08:32;;;;;;;13.02;5.65;;;11.80;99.90;;;;;;5040582;28;20407;-49
2021/12/20 12:11:37;;;;;;;10.63;5.20;;;11.80;99.90;;;;;;5039952;28;20040;-52
2021/12/20 12:15:03;;;;;;;12.27;5.43;;;12.00;99.90;;;;;;5043245;28;20041;-53
2021/12/20 12:18:10;;;;;;;10.30;5.75;;;12.30;99.90;;;;;;5043694;28;20059;-53
2021/12/20 12:21:39;;;;;;;12.10;5.30;;;12.50;99.90;;;;;;5042397;28;20056;-50
2021/12/20 12:24:49;;;;;;;11.38;5.90;;;12.60;99.90;;;;;;5042303;28;20048;-52
2021/12/20 12:27:58;;;;;;;10.95;6.00;;;12.80;99.90;;;;;;5041401;28;20044;-53
2021/12/20 12:31:07;;;;;;;8.05;5.88;;;13.00;99.90;;;;;;5038880;28;20511;-49
2021/12/20 12:34:11;;;;;;;17.38;6.90;;;13.40;99.90;;;;;;5033380;28;20025;-48
2021/12/20 12:37:29;;;;;;;13.05;5.60;;;13.40;99.90;;;;;;5031390;28;20051;-50
2021/12/20 12:40:34;;;;;;;9.23;5.22;;;13.40;99.90;;;;;;5034651;28;20044;-49
2021/12/20 12:44:07;;;;;;;9.38;6.00;;;13.30;99.90;;;;;;5045236;28;20192;-54
2021/12/20 12:47:14;;;;;;;14.00;6.32;;;13.20;99.90;;;;;;5041792;28;20029;-48
2021/12/20 12:50:25;;;;;;;12.77;6.32;;;13.20;99.90;;;;;;5036822;28;20531;-49
2021/12/20 12:53:45;;;;;;;14.57;7.30;;;13.20;99.90;;;;;;5041452;28;20060;-52
2021/12/20 12:56:49;;;;;;;15.68;6.28;;;13.40;99.90;;;;;;5044171;28;20400;-48
2021/12/20 13:00:03;;;;;;;11.38;6.45;;;13.40;99.90;;;;;;5030247;28;20052;-49
2021/12/20 13:03:12;;;;;;;12.30;6.85;;;13.50;99.90;;;;;;5031839;28;20048;-51
2021/12/20 13:06:19;;;;;;;12.15;6.18;;;13.40;99.90;;;;;;5025502;28;20040;-48
2021/12/20 13:09:32;;;;;;;11.57;6.65;;;13.40;99.90;;;;;;5029026;28;20052;-53
2021/12/20 13:12:44;;;;;;;12.55;6.63;;;13.20;99.90;;;;;;5028544;28;20044;-48
2021/12/20 13:15:59;;;;;;;12.70;7.72;;;13.10;99.90;;;;;;5029049;28;20049;-48
2021/12/20 13:19:04;;;;;;;15.02;7.25;;;13.00;99.90;;;;;;5029755;28;20060;-53
2021/12/20 13:22:09;;;;;;;15.05;6.40;;;12.90;99.90;;;;;;5022784;28;20053;-48
2021/12/20 13:25:13;;;;;;;14.65;7.05;;;12.80;99.90;;;;;;5029928;28;20045;-48
2021/12/20 13:28:24;;;;;;;15.07;7.43;;;12.70;99.90;;;;;;5029907;28;20036;-49
2021/12/20 13:31:28;;;;;;;14.95;6.82;;;12.60;99.90;;;;;;5026855;28;20044;-49
2021/12/20 13:34:32;;;;;;;12.32;6.63;;;12.60;99.90;;;;;;5027303;28;20045;-50
2021/12/20 13:37:39;;;;;;;12.75;6.38;;;12.60;99.90;;;;;;5022084;28;20037;-51
2021/12/20 13:40:55;;;;;;;12.65;6.55;;;12.60;99.90;;;;;;5028517;28;20040;-50
2021/12/20 13:44:01;;;;;;;14.23;5.65;;;12.60;99.90;;;;;;5027814;28;20056;-48
2021/12/20 13:47:16;;;;;;;12.45;6.88;;;12.60;99.90;;;;;;5028887;28;20037;-48
2021/12/20 13:50:20;;;;;;;16.58;7.75;;;12.60;99.90;;;;;;5023791;28;20040;-49
2021/12/20 13:53:29;;;;;;;16.48;6.40;;;12.50;99.90;;;;;;5029081;28;20048;-48
2021/12/20 13:56:33;;;;;;;19.00;7.15;;;12.60;99.90;;;;;;5026436;28;20048;-49
2021/12/20 13:59:56;;;;;;;13.13;6.78;;;12.50;99.90;;;;;;5030239;28;20060;-49
2021/12/20 14:03:00;;;;;;;12.65;6.60;;;12.40;99.90;;;;;;5021262;28;20045;-50
2021/12/20 14:06:05;;;;;;;13.82;6.78;;;12.40;99.90;;;;;;5023173;28;20511;-48
2021/12/20 14:09:23;;;;;;;15.50;7.22;;;12.50;99.90;;;;;;5026154;28;20036;-48
2021/12/20 14:12:43;;;;;;;13.60;7.75;;;12.50;99.90;;;;;;5020549;28;20507;-48
2021/12/20 14:15:55;;;;;;;14.25;7.20;;;12.60;99.90;;;;;;5025540;28;20033;-48
2021/12/20 14:18:59;;;;;;;;;;;12.70;99.90;;;;;;5020976;28;20053;-48
2021/12/20 14:22:03;;;;;;;13.60;7.15;;;12.60;99.90;;;;;;5027634;28;19924;-48
2021/12/20 14:25:08;;;;;;;18.02;6.88;;;12.70;99.90;;;;;;5028000;28;20040;-48
2021/12/20 14:28:13;;;;;;;15.48;7.68;;;12.70;99.90;;;;;;5028421;28;20049;-48
2021/12/20 14:31:37;;;;;;;16.48;9.38;;;12.70;99.90;;;;;;5022939;28;20048;-51
2021/12/20 14:34:42;;;;;;;18.80;10.32;;;12.60;99.90;;;;;;5023628;28;20032;-48
2021/12/20 14:37:45;;;;;;;18.40;8.57;;;12.50;99.90;;;;;;5022811;28;20052;-48
2021/12/20 14:40:50;;;;;;;18.05;10.23;;;12.40;99.90;;;;;;5026187;28;20056;-49
2021/12/20 14:43:56;;;;;;;16.70;9.88;;;12.40;99.90;;;;;;5028946;28;20152;-49
2021/12/20 14:47:07;;;;;;;14.82;9.95;;;12.30;99.90;;;;;;5028898;28;20543;-49
2021/12/20 14:50:25;;;;;;;14.57;8.23;;;12.20;99.90;;;;;;5024882;28;20052;-51
2021/12/20 14:53:29;;;;;;;13.38;8.15;;;12.10;99.90;;;;;;5024947;28;20041;-48
2021/12/20 14:56:33;;;;;;;16.30;8.00;;;11.90;99.90;;;;;;5028449;28;20400;-50
2021/12/20 14:59:37;;;;;;;20.23;8.45;;;11.90;99.90;;;;;;5029332;28;20052;-53
2021/12/20 15:02:43;;;;;;;16.73;7.68;;;11.80;99.90;;;;;;5013323;28;20084;-48
2021/12/20 15:05:47;;;;;;;13.93;7.88;;;11.70;99.90;;;;;;5026539;28;20582;-48
2021/12/20 15:08:51;;;;;;;19.52;8.15;;;11.60;99.90;;;;;;5027291;28;20048;-49
2021/12/20 15:11:57;;;;;;;15.38;8.05;;;11.50;99.90;;;;;;5024281;28;20045;-48
2021/12/20 15:15:02;;;;;;;20.25;9.05;;;11.40;99.90;;;;;;5024567;28;20397;-50
2021/12/20 15:18:07;;;;;;;16.80;8.18;;;11.30;99.90;;;;;;5023264;28;20044;-48
2021/12/20 15:21:11;;;;;;;14.98;8.73;;;11.30;99.90;;;;;;5025976;28;20052;-47
2021/12/20 15:24:15;;;;;;;15.38;9.13;;;11.20;99.90;;;;;;5025806;28;20503;-48
2021/12/20 15:27:19;;;;;;;16.45;9.18;;;11.10;99.90;;;;;;5021262;28;20045;-48
2021/12/20 15:30:23;;;;;;;16.00;8.85;;;11.00;99.90;;;;;;5027202;28;20032;-49
2021/12/20 15:33:28;;;;;;;17.48;9.18;;;10.90;99.90;;;;;;5027892;28;20048;-50
2021/12/20 15:36:32;;;;;;;19.50;11.15;;;10.80;99.90;;;;;;5026430;28;20048;-49
2021/12/20 15:39:36;;;;;;;16.95;9.90;;;10.80;99.90;;;;;;5022307;28;20044;-48
2021/12/20 15:42:57;;;;;;;19.52;10.82;;;10.70;99.90;;;;;;5027382;28;20052;-47
2021/12/20 15:46:04;;;;;;;19.60;11.20;;;10.60;99.90;;;;;;5027230;28;20518;-50
2021/12/20 15:49:08;;;;;;;23.52;11.57;;;10.60;99.90;;;;;;5025197;28;20044;-49
2021/12/20 15:52:12;;;;;;;22.65;11.70;;;10.60;99.90;;;;;;5022948;28;20044;-49
2021/12/20 15:55:16;;;;;;;21.77;10.63;;;10.50;99.90;;;;;;5025197;28;20072;-50
2021/12/20 15:58:20;;;;;;;17.45;9.63;;;10.40;99.90;;;;;;5019246;28;20052;-47
2021/12/20 16:01:24;;;;;;;20.42;9.98;;;10.40;99.90;;;;;;5019667;28;20053;-48
2021/12/20 16:04:28;;;;;;;19.63;10.77;;;10.40;99.90;;;;;;5024617;28;20048;-49
2021/12/20 16:07:32;;;;;;;28.80;12.27;;;10.40;99.90;;;;;;5023496;28;20044;-47
2021/12/20 16:10:36;;;;;;;27.15;12.95;;;10.30;99.90;;;;;;5020155;28;20044;-48
2021/12/20 16:13:41;;;;;;;24.75;12.57;;;10.30;99.90;;;;;;5028308;28;20065;-50
2021/12/20 16:16:45;;;;;;;24.48;12.60;;;10.30;99.90;;;;;;5026095;28;20036;-51
2021/12/20 16:19:48;;;;;;;32.38;19.67;;;10.30;99.90;;;;;;5025175;28;20084;-50
2021/12/20 16:22:53;;;;;;;24.35;14.68;;;10.40;99.90;;;;;;5019458;28;20033;-49
2021/12/20 16:25:57;;;;;;;21.13;9.82;;;10.40;99.90;;;;;;5027267;28;20041;-49